LFBY/XDA METAR and TAF weather

Enter ICAO airport designator
Station Type Date Time Source
LFBY METAR 2020/01/18 03:00 UTC NOAA

LFBY 180300Z AUTO 11003KT 9999 // ////// 05/04 Q1030


Station Type Date Time Source
LFBY Decoded METAR 2020/01/18 03:00 UTC NOAA

Dax, France (LFBY) 43-41N 001-04W 32M
Jan 17, 2020 - 10:00 PM EST / 2020.01.18 0300 UTC
Wind: from the ESE (110 degrees) at 3 MPH (3 KT):0
Visibility: greater than 7 mile(s):0
Temperature: 41 F (5 C)
Dew Point: 39 F (4 C)
Relative Humidity: 93%
Pressure (altimeter): 30.42 in. Hg (1030 hPa)
ob: LFBY 180300Z AUTO 11003KT 9999 // ////// 05/04 Q1030
cycle: 3

Station Type Date Time Source
LFBY TAF UTC NOAA

Error!

Example: see airport list